Time;durP1;ratioP1;P1;durP2;ratioP2;P2;SDS_P1;SDS_P2;PMS_P1;PMS_P2;Temp;Humidity;BMP_temperature;BMP_pressure;BME280_temperature;BME280_humidity;BME280_pressure;Samples;Min_cycle;Max_cycle;Signal;HPM_P1;HPM_P2
2022/12/24 00:09:39;;;;;;;9.97;2.57;;;12.10;99.90;;;;;;21095484;28;20321;-72
2022/12/24 00:19:42;;;;;;;6.13;2.10;;;12.00;99.90;;;;;;21092678;28;20357;-72
2022/12/24 00:29:43;;;;;;;7.43;2.10;;;11.90;99.90;;;;;;21091064;28;20230;-67
2022/12/24 00:39:45;;;;;;;7.57;2.03;;;11.90;99.90;;;;;;21072003;28;20202;-71
2022/12/24 00:56:01;;;;;;;11.20;2.37;;;;;;;;;;20984514;28;20570;-71
2022/12/24 01:06:09;;;;;;;12.43;2.77;;;11.70;98.80;;;;;;20982415;28;20213;-70
2022/12/24 01:16:16;;;;;;;6.90;1.97;;;11.70;98.40;;;;;;20983289;28;20654;-71
2022/12/24 01:26:18;;;;;;;10.93;2.30;;;11.60;98.00;;;;;;20982002;28;20277;-71
2022/12/24 01:36:20;;;;;;;7.57;2.40;;;11.50;97.60;;;;;;20981337;28;20237;-71
2022/12/24 01:46:22;;;;;;;15.40;2.70;;;11.50;97.30;;;;;;20980183;28;20240;-71
2022/12/24 01:56:25;;;;;;;8.07;2.50;;;11.50;96.60;;;;;;20979539;28;20577;-71
2022/12/24 02:06:26;;;;;;;10.20;1.80;;;11.60;96.20;;;;;;20929456;28;20235;-70
2022/12/24 02:16:59;;;;;;;8.33;2.07;;;11.00;95.60;;;;;;20923678;28;20211;-70
2022/12/24 02:27:16;;;;;;;8.67;2.60;;;11.50;95.90;;;;;;20923519;28;20239;-71
2022/12/24 02:37:25;;;;;;;7.77;2.20;;;11.50;96.00;;;;;;20921694;28;20213;-71
2022/12/24 02:47:28;;;;;;;10.43;2.50;;;11.50;96.10;;;;;;20919377;28;20714;-67
2022/12/24 02:57:43;;;;;;;10.80;2.10;;;11.60;96.10;;;;;;20921385;28;20216;-66
2022/12/24 03:08:02;;;;;;;16.40;2.47;;;11.60;96.20;;;;;;20919204;28;20729;-71
2022/12/24 03:18:07;;;;;;;12.90;2.50;;;11.60;96.40;;;;;;20917604;28;20242;-72
2022/12/24 03:28:13;;;;;;;7.93;2.30;;;11.50;96.50;;;;;;20918639;28;20705;-71
2022/12/24 03:38:15;;;;;;;8.77;2.30;;;11.50;96.60;;;;;;20918405;28;20733;-69
2022/12/24 03:48:17;;;;;;;10.93;2.17;;;11.40;96.70;;;;;;20915729;28;20238;-71
2022/12/24 03:58:18;;;;;;;11.13;2.33;;;11.50;96.70;;;;;;20915743;28;20280;-71
2022/12/24 04:08:20;;;;;;;7.73;1.90;;;11.60;96.70;;;;;;20914458;28;20235;-72
2022/12/24 04:18:22;;;;;;;14.53;2.57;;;11.60;96.60;;;;;;20914293;28;20210;-73
2022/12/24 04:28:23;;;;;;;10.13;2.20;;;11.60;96.70;;;;;;20913554;28;20231;-72
2022/12/24 04:38:25;;;;;;;5.87;1.90;;;11.60;96.70;;;;;;20912865;28;20260;-72
2022/12/24 04:48:27;;;;;;;8.83;1.90;;;11.60;97.00;;;;;;20912187;28;20591;-72
2022/12/24 04:58:29;;;;;;;10.13;2.43;;;11.60;97.10;;;;;;20912279;28;20210;-70
2022/12/24 05:08:31;;;;;;;9.33;1.80;;;11.70;97.10;;;;;;20911433;28;20239;-69
2022/12/24 05:18:32;;;;;;;10.37;2.40;;;11.70;97.10;;;;;;20911141;28;20730;-69
2022/12/24 05:28:34;;;;;;;9.50;1.93;;;12.10;97.30;;;;;;20910968;28;20236;-73
2022/12/24 05:38:36;;;;;;;11.50;3.17;;;11.70;97.30;;;;;;20919439;28;20574;-71
2022/12/24 05:48:38;;;;;;;10.07;2.80;;;11.70;97.30;;;;;;20925322;28;20811;-72
2022/12/24 05:58:40;;;;;;;9.53;2.30;;;11.70;97.30;;;;;;20925063;28;20213;-72
2022/12/24 06:08:42;;;;;;;13.43;2.40;;;11.70;97.40;;;;;;20923882;28;20246;-72
2022/12/24 06:18:45;;;;;;;13.00;2.37;;;;;;;;;;20923276;28;20218;-73
2022/12/24 06:28:47;;;;;;;13.07;2.67;;;11.70;97.80;;;;;;20923618;28;20289;-73
2022/12/24 06:38:50;;;;;;;11.17;2.63;;;11.70;98.00;;;;;;20921926;28;20696;-73
2022/12/24 06:48:53;;;;;;;19.80;9.97;;;11.70;98.30;;;;;;20919895;28;20246;-73
2022/12/24 06:58:55;;;;;;;11.87;2.83;;;11.70;98.50;;;;;;20921662;28;20211;-72
2022/12/24 07:09:05;;;;;;;12.27;3.10;;;11.50;98.80;;;;;;20919375;28;20233;-72
2022/12/24 07:19:07;;;;;;;8.30;2.73;;;11.40;99.10;;;;;;20918626;28;20212;-71
2022/12/24 07:29:09;;;;;;;16.27;3.10;;;;;;;;;;20918192;28;20236;-72
2022/12/24 07:39:11;;;;;;;17.20;2.97;;;;;;;;;;20916867;28;20210;-72
2022/12/24 07:49:12;;;;;;;9.97;3.00;;;11.50;99.40;;;;;;20916045;28;20236;-72
2022/12/24 07:59:14;;;;;;;10.50;2.97;;;11.60;99.40;;;;;;20915400;28;20222;-71
2022/12/24 08:09:16;;;;;;;14.27;3.17;;;11.60;99.30;;;;;;20914470;28;20232;-73
2022/12/24 08:19:18;;;;;;;12.80;3.17;;;11.60;99.30;;;;;;20913923;28;20249;-72
2022/12/24 08:29:19;;;;;;;11.27;2.70;;;11.60;99.30;;;;;;20913501;28;20598;-73
2022/12/24 08:39:22;;;;;;;15.10;3.07;;;;;;;;;;20912876;28;20213;-72
2022/12/24 08:49:23;;;;;;;12.17;3.10;;;11.60;99.20;;;;;;20911798;28;20235;-72
2022/12/24 08:59:25;;;;;;;14.20;3.47;;;11.70;99.20;;;;;;20912262;28;20261;-71
2022/12/24 09:09:27;;;;;;;15.93;3.23;;;11.90;99.20;;;;;;20914063;28;20278;-72
2022/12/24 09:19:38;;;;;;;14.93;3.20;;;12.00;99.20;;;;;;20927729;28;20210;-72
2022/12/24 09:29:39;;;;;;;16.50;4.10;;;12.00;99.10;;;;;;20927401;28;20238;-71
2022/12/24 09:39:41;;;;;;;21.33;3.73;;;12.00;99.20;;;;;;20926235;28;20624;-73
2022/12/24 09:49:48;;;;;;;17.00;3.70;;;12.10;99.10;;;;;;20925314;28;20237;-72
2022/12/24 09:59:50;;;;;;;15.87;3.40;;;12.40;98.90;;;;;;20925432;28;20204;-72
2022/12/24 10:10:24;;;;;;;13.63;3.40;;;12.40;98.80;;;;;;20924523;28;20240;-72
2022/12/24 10:20:57;;;;;;;14.83;3.70;;;12.40;98.80;;;;;;20922774;28;20619;-69
2022/12/24 10:31:04;;;;;;;17.33;3.63;;;12.40;98.80;;;;;;20922639;28;20575;-71
2022/12/24 10:41:07;;;;;;;21.37;4.20;;;12.40;98.90;;;;;;20921461;28;20211;-72
2022/12/24 10:51:20;;;;;;;13.33;3.57;;;12.40;99.00;;;;;;20920744;28;20241;-70
2022/12/24 11:01:45;;;;;;;18.63;4.37;;;12.50;99.00;;;;;;20919891;28;20211;-70
2022/12/24 11:11:48;;;;;;;20.23;4.13;;;12.50;99.00;;;;;;20919484;28;20691;-70
2022/12/24 11:21:58;;;;;;;34.77;12.47;;;12.40;99.30;;;;;;20918337;28;20211;-72
2022/12/24 11:32:17;;;;;;;14.03;3.67;;;12.40;99.80;;;;;;20916524;28;20235;-72
2022/12/24 11:42:32;;;;;;;19.90;3.47;;;12.40;99.90;;;;;;20917051;28;20656;-72
2022/12/24 11:52:34;;;;;;;11.50;3.17;;;12.50;99.90;;;;;;20915668;28;20246;-72
2022/12/24 12:02:38;;;;;;;13.20;3.30;;;12.80;99.90;;;;;;20914949;28;20925;-71
2022/12/24 12:12:44;;;;;;;11.90;3.53;;;13.10;99.70;;;;;;20914783;28;20249;-69
2022/12/24 12:22:59;;;;;;;24.37;10.50;;;13.30;98.70;;;;;;20913798;28;20245;-70
2022/12/24 12:33:50;;;;;;;17.13;3.67;;;13.50;97.90;;;;;;20913021;28;20239;-70
2022/12/24 12:44:19;;;;;;;15.80;3.40;;;13.50;97.10;;;;;;20904402;28;20212;-72
2022/12/24 12:54:33;;;;;;;16.60;3.50;;;13.30;96.70;;;;;;20911884;28;20645;-72
2022/12/24 13:12:42;;;;;;;20.00;3.47;;;13.10;96.90;;;;;;20985051;28;20573;-70
2022/12/24 13:22:55;;;;;;;16.17;3.57;;;12.90;97.00;;;;;;20984136;28;20635;-72
2022/12/24 13:32:56;;;;;;;16.90;3.70;;;12.80;97.30;;;;;;20984571;28;20217;-71
2022/12/24 13:42:58;;;;;;;14.43;3.70;;;12.60;97.90;;;;;;20982775;28;20223;-71
2022/12/24 13:53:00;;;;;;;15.33;3.30;;;;;;;;;;20981056;28;20205;-69
2022/12/24 14:03:34;;;;;;;18.00;3.90;;;12.30;99.50;;;;;;20979930;28;20245;-69
2022/12/24 14:13:39;;;;;;;16.73;4.30;;;12.20;99.80;;;;;;20978133;28;20278;-71
2022/12/24 14:24:03;;;;;;;15.97;3.77;;;12.10;99.90;;;;;;20923577;28;20242;-68
2022/12/24 14:34:12;;;;;;;17.63;4.10;;;11.90;99.90;;;;;;20923179;28;20253;-69
2022/12/24 14:44:24;;;;;;;11.83;3.20;;;11.80;99.90;;;;;;20922680;28;20705;-68
2022/12/24 14:54:40;;;;;;;9.83;3.40;;;11.70;99.90;;;;;;20921593;28;20240;-68
2022/12/24 15:04:42;;;;;;;15.77;3.83;;;11.70;99.90;;;;;;20920573;28;20250;-70
2022/12/24 15:14:44;;;;;;;17.27;4.10;;;11.70;99.90;;;;;;20920326;28;20204;-69
2022/12/24 15:24:46;;;;;;;17.70;4.47;;;11.60;99.90;;;;;;20919276;28;20242;-71
2022/12/24 15:34:53;;;;;;;16.60;4.10;;;11.40;99.90;;;;;;20917436;28;20241;-73
2022/12/24 15:45:02;;;;;;;11.47;4.53;;;11.40;99.90;;;;;;20918069;28;20736;-72
2022/12/24 15:55:04;;;;;;;17.63;4.50;;;11.20;99.90;;;;;;20916845;28;20215;-72
2022/12/24 16:05:25;;;;;;;15.43;4.93;;;11.10;99.90;;;;;;20915585;28;20250;-72
2022/12/24 16:15:26;;;;;;;14.17;5.00;;;11.00;99.90;;;;;;20915624;28;20219;-72
2022/12/24 16:25:29;;;;;;;21.30;8.37;;;10.70;99.90;;;;;;20915187;28;20637;-73
2022/12/24 16:35:32;;;;;;;15.80;7.23;;;10.50;99.90;;;;;;20914106;28;20264;-72
2022/12/24 16:45:36;;;;;;;16.53;6.60;;;10.40;99.90;;;;;;20912735;28;20250;-72
2022/12/24 16:55:37;;;;;;;20.67;8.20;;;9.10;99.90;;;;;;20916168;28;20218;-72
2022/12/24 17:05:41;;;;;;;19.33;9.50;;;10.30;99.90;;;;;;20912935;28;20269;-69
2022/12/24 17:15:42;;;;;;;18.80;8.83;;;10.20;99.90;;;;;;20911913;28;20219;-69
2022/12/24 17:25:45;;;;;;;22.93;10.40;;;10.20;99.90;;;;;;20911861;28;20332;-70
2022/12/24 17:35:48;;;;;;;15.97;6.70;;;10.30;99.90;;;;;;20911474;28;20228;-70
2022/12/24 17:45:49;;;;;;;18.37;8.60;;;10.30;99.90;;;;;;20910729;28;20728;-70
2022/12/24 17:55:51;;;;;;;19.17;6.60;;;10.20;99.90;;;;;;20921231;28;20206;-70
2022/12/24 18:05:53;;;;;;;15.03;4.30;;;10.50;99.90;;;;;;20925343;28;20292;-73
2022/12/24 18:15:55;;;;;;;15.90;4.53;;;;;;;;;;20924813;28;20214;-71
2022/12/24 18:26:01;;;;;;;17.40;4.37;;;10.90;99.90;;;;;;20924165;28;20235;-72
2022/12/24 18:36:03;;;;;;;12.07;3.77;;;10.80;99.90;;;;;;20923260;28;20211;-73
2022/12/24 18:46:07;;;;;;;15.37;4.20;;;10.90;99.90;;;;;;20922319;28;20239;-74
2022/12/24 18:56:15;;;;;;;18.60;4.77;;;10.90;99.90;;;;;;20924094;28;20261;-73
2022/12/24 19:06:18;;;;;;;20.77;5.00;;;10.90;99.90;;;;;;20920508;28;20242;-73
2022/12/24 19:16:20;;;;;;;15.60;4.33;;;11.00;99.90;;;;;;20919880;28;20207;-72
2022/12/24 19:26:23;;;;;;;16.93;4.30;;;;;;;;;;20919337;28;20625;-73
2022/12/24 19:36:27;;;;;;;17.23;4.90;;;11.10;99.90;;;;;;20918458;28;20763;-69
2022/12/24 19:46:31;;;;;;;19.70;4.60;;;11.10;99.90;;;;;;20917539;28;20236;-70
2022/12/24 19:56:34;;;;;;;14.17;4.73;;;11.10;99.90;;;;;;20917178;28;20707;-73
2022/12/24 20:06:35;;;;;;;19.07;5.90;;;11.00;99.90;;;;;;20916675;28;20239;-70
2022/12/24 20:16:37;;;;;;;18.83;6.80;;;11.00;99.90;;;;;;20918233;28;20254;-70
2022/12/24 20:26:39;;;;;;;18.57;9.50;;;10.80;99.90;;;;;;20915974;28;20239;-69
2022/12/24 20:36:41;;;;;;;22.20;9.13;;;10.70;99.90;;;;;;20914090;28;20256;-71
2022/12/24 20:46:43;;;;;;;19.33;8.57;;;10.60;99.90;;;;;;20913264;28;20241;-72
2022/12/24 20:56:44;;;;;;;18.30;8.37;;;10.60;99.90;;;;;;20913427;28;20236;-70
2022/12/24 21:06:58;;;;;;;20.03;8.80;;;10.60;99.90;;;;;;20912097;28;20239;-70
2022/12/24 21:17:00;;;;;;;21.33;9.37;;;10.50;99.90;;;;;;20912065;28;20203;-71
2022/12/24 21:27:02;;;;;;;20.87;10.20;;;10.40;99.90;;;;;;20916824;28;20387;-71
2022/12/24 21:37:03;;;;;;;24.23;10.17;;;10.40;99.90;;;;;;20927773;28;20684;-73
2022/12/24 21:47:06;;;;;;;26.73;10.13;;;10.30;99.90;;;;;;20926977;28;20239;-72
2022/12/24 22:17:49;;;;;;;23.07;9.67;;;10.20;99.90;;;;;;20924974;28;20262;-69
2022/12/24 22:27:51;;;;;;;29.23;9.33;;;10.20;99.90;;;;;;20924317;28;20231;-69
2022/12/24 22:37:53;;;;;;;18.00;8.60;;;10.20;99.90;;;;;;20922882;28;20210;-69
2022/12/24 22:48:00;;;;;;;20.33;8.43;;;10.10;99.90;;;;;;20922289;28;20328;-69
2022/12/24 22:58:03;;;;;;;23.27;8.67;;;;;;;;;;20922047;28;20251;-72
2022/12/24 23:08:06;;;;;;;26.90;9.13;;;10.10;99.90;;;;;;20920749;28;20651;-72
2022/12/24 23:18:08;;;;;;;20.20;9.37;;;10.10;99.90;;;;;;20920245;28;20210;-72
2022/12/24 23:28:10;;;;;;;23.90;10.30;;;9.90;99.90;;;;;;20919783;28;20291;-70
2022/12/24 23:38:11;;;;;;;27.27;10.33;;;10.00;99.90;;;;;;20922316;28;20236;-70
2022/12/24 23:48:14;;;;;;;18.80;9.77;;;10.00;99.90;;;;;;20927249;28;20233;-72
2022/12/24 23:58:16;;;;;;;19.10;9.80;;;10.00;99.90;;;;;;20917212;28;20608;-72
